sensor_id;sensor_type;location;lat;lon;timestamp;P1;durP1;ratioP1;P2;durP2;ratioP2
19111;SDS011;9688;51.906;8.376;2023-04-03T00:01:53;5.20;;;1.93;;
19111;SDS011;9688;51.906;8.376;2023-04-03T00:04:38;7.37;;;1.77;;
19111;SDS011;9688;51.906;8.376;2023-04-03T00:07:24;3.13;;;1.83;;
19111;SDS011;9688;51.906;8.376;2023-04-03T00:10:13;4.60;;;1.80;;
19111;SDS011;9688;51.906;8.376;2023-04-03T00:12:59;7.07;;;1.93;;
19111;SDS011;9688;51.906;8.376;2023-04-03T00:15:45;2.80;;;1.50;;
19111;SDS011;9688;51.906;8.376;2023-04-03T00:18:31;3.17;;;1.70;;
19111;SDS011;9688;51.906;8.376;2023-04-03T00:21:16;4.23;;;1.50;;
19111;SDS011;9688;51.906;8.376;2023-04-03T00:24:02;5.17;;;1.90;;
19111;SDS011;9688;51.906;8.376;2023-04-03T00:26:49;1.63;;;1.53;;
19111;SDS011;9688;51.906;8.376;2023-04-03T00:29:35;5.43;;;1.80;;
19111;SDS011;9688;51.906;8.376;2023-04-03T00:32:20;2.23;;;1.80;;
19111;SDS011;9688;51.906;8.376;2023-04-03T00:35:05;4.50;;;1.47;;
19111;SDS011;9688;51.906;8.376;2023-04-03T00:37:52;3.93;;;1.97;;
19111;SDS011;9688;51.906;8.376;2023-04-03T00:40:41;2.87;;;1.60;;
19111;SDS011;9688;51.906;8.376;2023-04-03T00:43:29;4.17;;;1.90;;
19111;SDS011;9688;51.906;8.376;2023-04-03T00:46:15;5.00;;;1.70;;
19111;SDS011;9688;51.906;8.376;2023-04-03T00:49:01;6.63;;;1.70;;
19111;SDS011;9688;51.906;8.376;2023-04-03T00:51:47;3.17;;;2.13;;
19111;SDS011;9688;51.906;8.376;2023-04-03T00:54:33;4.27;;;2.00;;
19111;SDS011;9688;51.906;8.376;2023-04-03T00:57:21;2.63;;;1.90;;
19111;SDS011;9688;51.906;8.376;2023-04-03T01:00:10;3.93;;;1.77;;
19111;SDS011;9688;51.906;8.376;2023-04-03T01:03:02;3.50;;;1.70;;
19111;SDS011;9688;51.906;8.376;2023-04-03T01:05:48;2.67;;;1.40;;
19111;SDS011;9688;51.906;8.376;2023-04-03T01:08:34;8.83;;;2.07;;
19111;SDS011;9688;51.906;8.376;2023-04-03T01:11:20;2.93;;;1.77;;
19111;SDS011;9688;51.906;8.376;2023-04-03T01:14:06;5.27;;;1.90;;
19111;SDS011;9688;51.906;8.376;2023-04-03T01:16:54;2.83;;;1.70;;
19111;SDS011;9688;51.906;8.376;2023-04-03T01:19:40;7.27;;;1.80;;
19111;SDS011;9688;51.906;8.376;2023-04-03T01:22:37;4.07;;;1.40;;
19111;SDS011;9688;51.906;8.376;2023-04-03T01:25:32;3.53;;;1.80;;
19111;SDS011;9688;51.906;8.376;2023-04-03T01:28:21;4.10;;;1.83;;
19111;SDS011;9688;51.906;8.376;2023-04-03T01:31:12;2.60;;;1.97;;
19111;SDS011;9688;51.906;8.376;2023-04-03T01:34:05;2.87;;;1.60;;
19111;SDS011;9688;51.906;8.376;2023-04-03T01:36:51;3.60;;;1.77;;
19111;SDS011;9688;51.906;8.376;2023-04-03T01:39:37;3.77;;;1.83;;
19111;SDS011;9688;51.906;8.376;2023-04-03T01:42:22;2.50;;;1.70;;
19111;SDS011;9688;51.906;8.376;2023-04-03T01:45:08;5.33;;;1.90;;
19111;SDS011;9688;51.906;8.376;2023-04-03T01:47:54;7.37;;;2.00;;
19111;SDS011;9688;51.906;8.376;2023-04-03T01:50:41;3.43;;;1.77;;
19111;SDS011;9688;51.906;8.376;2023-04-03T01:53:27;3.60;;;1.70;;
19111;SDS011;9688;51.906;8.376;2023-04-03T01:56:13;3.70;;;1.57;;
19111;SDS011;9688;51.906;8.376;2023-04-03T01:58:59;3.03;;;2.20;;
19111;SDS011;9688;51.906;8.376;2023-04-03T02:01:45;5.13;;;2.47;;
19111;SDS011;9688;51.906;8.376;2023-04-03T02:04:30;6.40;;;2.70;;
19111;SDS011;9688;51.906;8.376;2023-04-03T02:07:17;4.57;;;1.77;;
19111;SDS011;9688;51.906;8.376;2023-04-03T02:10:04;4.70;;;2.17;;
19111;SDS011;9688;51.906;8.376;2023-04-03T02:12:50;4.80;;;1.77;;
19111;SDS011;9688;51.906;8.376;2023-04-03T02:15:38;3.80;;;2.03;;
19111;SDS011;9688;51.906;8.376;2023-04-03T02:18:24;2.37;;;1.80;;
19111;SDS011;9688;51.906;8.376;2023-04-03T02:21:10;4.43;;;2.47;;
19111;SDS011;9688;51.906;8.376;2023-04-03T02:23:57;4.30;;;1.77;;
19111;SDS011;9688;51.906;8.376;2023-04-03T02:26:42;6.33;;;1.70;;
19111;SDS011;9688;51.906;8.376;2023-04-03T02:29:28;5.83;;;1.83;;
19111;SDS011;9688;51.906;8.376;2023-04-03T02:32:14;9.37;;;2.80;;
19111;SDS011;9688;51.906;8.376;2023-04-03T02:34:59;4.50;;;1.93;;
19111;SDS011;9688;51.906;8.376;2023-04-03T02:37:45;5.37;;;2.07;;
19111;SDS011;9688;51.906;8.376;2023-04-03T02:40:32;3.87;;;1.47;;
19111;SDS011;9688;51.906;8.376;2023-04-03T02:43:17;3.77;;;1.70;;
19111;SDS011;9688;51.906;8.376;2023-04-03T02:46:04;3.87;;;1.60;;
19111;SDS011;9688;51.906;8.376;2023-04-03T02:48:50;5.47;;;1.90;;
19111;SDS011;9688;51.906;8.376;2023-04-03T02:51:35;5.13;;;1.80;;
19111;SDS011;9688;51.906;8.376;2023-04-03T02:54:21;4.83;;;1.70;;
19111;SDS011;9688;51.906;8.376;2023-04-03T02:57:12;3.27;;;2.13;;
19111;SDS011;9688;51.906;8.376;2023-04-03T02:59:58;5.43;;;2.27;;
19111;SDS011;9688;51.906;8.376;2023-04-03T03:02:44;2.60;;;1.67;;
19111;SDS011;9688;51.906;8.376;2023-04-03T03:05:29;3.17;;;1.83;;
19111;SDS011;9688;51.906;8.376;2023-04-03T03:08:15;4.80;;;1.77;;
19111;SDS011;9688;51.906;8.376;2023-04-03T03:11:04;5.60;;;2.27;;
19111;SDS011;9688;51.906;8.376;2023-04-03T03:13:51;2.80;;;2.00;;
19111;SDS011;9688;51.906;8.376;2023-04-03T03:16:37;4.80;;;1.90;;
19111;SDS011;9688;51.906;8.376;2023-04-03T03:19:22;4.80;;;1.80;;
19111;SDS011;9688;51.906;8.376;2023-04-03T03:22:08;3.70;;;1.60;;
19111;SDS011;9688;51.906;8.376;2023-04-03T03:24:54;9.97;;;2.10;;
19111;SDS011;9688;51.906;8.376;2023-04-03T03:27:40;14.30;;;4.63;;
19111;SDS011;9688;51.906;8.376;2023-04-03T03:30:27;11.40;;;3.17;;
19111;SDS011;9688;51.906;8.376;2023-04-03T03:33:12;9.93;;;3.00;;
19111;SDS011;9688;51.906;8.376;2023-04-03T03:35:59;9.23;;;3.60;;
19111;SDS011;9688;51.906;8.376;2023-04-03T03:38:44;15.80;;;4.67;;
19111;SDS011;9688;51.906;8.376;2023-04-03T03:41:30;12.73;;;5.20;;
19111;SDS011;9688;51.906;8.376;2023-04-03T03:44:15;21.87;;;7.03;;
19111;SDS011;9688;51.906;8.376;2023-04-03T03:47:02;14.10;;;5.73;;
19111;SDS011;9688;51.906;8.376;2023-04-03T03:49:50;13.80;;;4.57;;
19111;SDS011;9688;51.906;8.376;2023-04-03T03:52:36;18.60;;;5.93;;
19111;SDS011;9688;51.906;8.376;2023-04-03T03:55:23;14.77;;;4.70;;
19111;SDS011;9688;51.906;8.376;2023-04-03T03:58:09;12.17;;;5.03;;
19111;SDS011;9688;51.906;8.376;2023-04-03T04:00:55;18.53;;;5.70;;
19111;SDS011;9688;51.906;8.376;2023-04-03T04:03:42;6.93;;;3.50;;
19111;SDS011;9688;51.906;8.376;2023-04-03T04:06:27;9.60;;;4.33;;
19111;SDS011;9688;51.906;8.376;2023-04-03T04:09:13;6.63;;;3.70;;
19111;SDS011;9688;51.906;8.376;2023-04-03T04:11:58;10.77;;;4.57;;
19111;SDS011;9688;51.906;8.376;2023-04-03T04:14:44;7.73;;;3.63;;
19111;SDS011;9688;51.906;8.376;2023-04-03T04:17:30;12.67;;;4.00;;
19111;SDS011;9688;51.906;8.376;2023-04-03T04:20:18;9.43;;;4.60;;
19111;SDS011;9688;51.906;8.376;2023-04-03T04:23:04;5.60;;;3.20;;
19111;SDS011;9688;51.906;8.376;2023-04-03T04:25:50;11.40;;;3.93;;
19111;SDS011;9688;51.906;8.376;2023-04-03T04:28:36;7.80;;;3.27;;
19111;SDS011;9688;51.906;8.376;2023-04-03T04:31:22;12.90;;;4.63;;
19111;SDS011;9688;51.906;8.376;2023-04-03T04:34:08;9.17;;;3.97;;
19111;SDS011;9688;51.906;8.376;2023-04-03T04:36:55;13.43;;;4.53;;
19111;SDS011;9688;51.906;8.376;2023-04-03T04:39:41;10.33;;;4.30;;
19111;SDS011;9688;51.906;8.376;2023-04-03T04:42:30;13.83;;;6.00;;
19111;SDS011;9688;51.906;8.376;2023-04-03T04:45:15;19.43;;;6.13;;
19111;SDS011;9688;51.906;8.376;2023-04-03T04:48:01;11.97;;;5.03;;
19111;SDS011;9688;51.906;8.376;2023-04-03T04:50:47;18.50;;;7.43;;
19111;SDS011;9688;51.906;8.376;2023-04-03T04:53:33;16.97;;;6.37;;
19111;SDS011;9688;51.906;8.376;2023-04-03T04:56:19;15.80;;;5.40;;
19111;SDS011;9688;51.906;8.376;2023-04-03T04:59:04;14.57;;;5.13;;
19111;SDS011;9688;51.906;8.376;2023-04-03T05:01:50;14.57;;;5.30;;
19111;SDS011;9688;51.906;8.376;2023-04-03T05:04:36;10.63;;;4.03;;
19111;SDS011;9688;51.906;8.376;2023-04-03T05:07:21;14.33;;;4.77;;
19111;SDS011;9688;51.906;8.376;2023-04-03T05:10:09;13.20;;;4.87;;
19111;SDS011;9688;51.906;8.376;2023-04-03T05:12:57;15.40;;;4.47;;
19111;SDS011;9688;51.906;8.376;2023-04-03T05:15:43;13.57;;;3.70;;
19111;SDS011;9688;51.906;8.376;2023-04-03T05:18:28;8.87;;;3.90;;
19111;SDS011;9688;51.906;8.376;2023-04-03T05:21:14;6.63;;;3.20;;
19111;SDS011;9688;51.906;8.376;2023-04-03T05:24:02;15.93;;;5.00;;
19111;SDS011;9688;51.906;8.376;2023-04-03T05:26:49;9.67;;;3.93;;
19111;SDS011;9688;51.906;8.376;2023-04-03T05:29:35;16.87;;;6.00;;
19111;SDS011;9688;51.906;8.376;2023-04-03T05:32:20;11.10;;;4.20;;
19111;SDS011;9688;51.906;8.376;2023-04-03T05:35:06;8.77;;;3.27;;
19111;SDS011;9688;51.906;8.376;2023-04-03T05:37:52;12.73;;;5.10;;
19111;SDS011;9688;51.906;8.376;2023-04-03T05:40:40;13.53;;;4.00;;
19111;SDS011;9688;51.906;8.376;2023-04-03T05:43:29;12.87;;;4.83;;
19111;SDS011;9688;51.906;8.376;2023-04-03T05:46:16;13.07;;;5.33;;
19111;SDS011;9688;51.906;8.376;2023-04-03T05:49:03;8.70;;;3.10;;
19111;SDS011;9688;51.906;8.376;2023-04-03T05:51:49;17.73;;;5.07;;
19111;SDS011;9688;51.906;8.376;2023-04-03T05:54:36;14.57;;;5.33;;
19111;SDS011;9688;51.906;8.376;2023-04-03T05:57:21;15.90;;;5.30;;
19111;SDS011;9688;51.906;8.376;2023-04-03T06:00:11;29.47;;;10.13;;
19111;SDS011;9688;51.906;8.376;2023-04-03T06:03:00;18.17;;;6.90;;
19111;SDS011;9688;51.906;8.376;2023-04-03T06:05:45;15.63;;;5.63;;
19111;SDS011;9688;51.906;8.376;2023-04-03T06:08:31;16.53;;;6.13;;
19111;SDS011;9688;51.906;8.376;2023-04-03T06:11:17;11.57;;;4.83;;
19111;SDS011;9688;51.906;8.376;2023-04-03T06:14:02;16.40;;;4.30;;
19111;SDS011;9688;51.906;8.376;2023-04-03T06:16:49;10.47;;;4.87;;
19111;SDS011;9688;51.906;8.376;2023-04-03T06:19:35;18.33;;;6.33;;
19111;SDS011;9688;51.906;8.376;2023-04-03T06:22:21;24.10;;;8.30;;
19111;SDS011;9688;51.906;8.376;2023-04-03T06:25:09;15.67;;;6.80;;
19111;SDS011;9688;51.906;8.376;2023-04-03T06:27:55;11.17;;;4.50;;
19111;SDS011;9688;51.906;8.376;2023-04-03T06:30:41;9.93;;;3.93;;
19111;SDS011;9688;51.906;8.376;2023-04-03T06:33:29;17.47;;;5.10;;
19111;SDS011;9688;51.906;8.376;2023-04-03T06:36:15;16.00;;;6.00;;
19111;SDS011;9688;51.906;8.376;2023-04-03T06:39:04;9.50;;;3.07;;
19111;SDS011;9688;51.906;8.376;2023-04-03T06:41:53;9.80;;;3.70;;
19111;SDS011;9688;51.906;8.376;2023-04-03T06:44:39;4.80;;;2.53;;
19111;SDS011;9688;51.906;8.376;2023-04-03T06:47:25;11.53;;;4.90;;
19111;SDS011;9688;51.906;8.376;2023-04-03T06:50:16;8.07;;;3.10;;
19111;SDS011;9688;51.906;8.376;2023-04-03T06:53:05;5.43;;;2.60;;
19111;SDS011;9688;51.906;8.376;2023-04-03T06:55:52;6.67;;;2.20;;
19111;SDS011;9688;51.906;8.376;2023-04-03T06:58:38;7.17;;;2.03;;
19111;SDS011;9688;51.906;8.376;2023-04-03T07:01:25;5.57;;;2.00;;
19111;SDS011;9688;51.906;8.376;2023-04-03T07:04:14;7.17;;;2.23;;
19111;SDS011;9688;51.906;8.376;2023-04-03T07:07:01;4.60;;;2.10;;
19111;SDS011;9688;51.906;8.376;2023-04-03T07:09:47;5.50;;;2.00;;
19111;SDS011;9688;51.906;8.376;2023-04-03T07:12:33;9.30;;;2.20;;
19111;SDS011;9688;51.906;8.376;2023-04-03T07:15:20;2.70;;;1.70;;
19111;SDS011;9688;51.906;8.376;2023-04-03T07:18:10;8.27;;;2.10;;
19111;SDS011;9688;51.906;8.376;2023-04-03T07:21:01;5.07;;;1.90;;
19111;SDS011;9688;51.906;8.376;2023-04-03T07:23:48;6.77;;;1.90;;
19111;SDS011;9688;51.906;8.376;2023-04-03T07:26:35;3.57;;;2.00;;
19111;SDS011;9688;51.906;8.376;2023-04-03T07:29:21;3.77;;;2.00;;
19111;SDS011;9688;51.906;8.376;2023-04-03T07:32:07;4.30;;;2.00;;
19111;SDS011;9688;51.906;8.376;2023-04-03T07:34:55;3.63;;;1.90;;
19111;SDS011;9688;51.906;8.376;2023-04-03T07:37:41;4.33;;;1.77;;
19111;SDS011;9688;51.906;8.376;2023-04-03T07:40:30;5.23;;;1.60;;
19111;SDS011;9688;51.906;8.376;2023-04-03T07:43:16;8.70;;;2.17;;
19111;SDS011;9688;51.906;8.376;2023-04-03T07:46:04;4.57;;;1.73;;
19111;SDS011;9688;51.906;8.376;2023-04-03T07:48:51;4.67;;;1.70;;
19111;SDS011;9688;51.906;8.376;2023-04-03T07:51:38;6.90;;;1.70;;
19111;SDS011;9688;51.906;8.376;2023-04-03T07:54:24;2.77;;;1.50;;
19111;SDS011;9688;51.906;8.376;2023-04-03T07:57:14;3.20;;;1.73;;
19111;SDS011;9688;51.906;8.376;2023-04-03T08:00:05;3.07;;;1.93;;
19111;SDS011;9688;51.906;8.376;2023-04-03T08:02:53;3.50;;;1.60;;
19111;SDS011;9688;51.906;8.376;2023-04-03T08:05:39;3.10;;;1.57;;
19111;SDS011;9688;51.906;8.376;2023-04-03T08:08:26;2.17;;;1.27;;
19111;SDS011;9688;51.906;8.376;2023-04-03T08:11:13;3.70;;;1.80;;
19111;SDS011;9688;51.906;8.376;2023-04-03T08:14:01;2.50;;;1.60;;
19111;SDS011;9688;51.906;8.376;2023-04-03T08:16:47;3.43;;;1.40;;
19111;SDS011;9688;51.906;8.376;2023-04-03T08:19:33;2.90;;;1.30;;
19111;SDS011;9688;51.906;8.376;2023-04-03T08:22:19;5.03;;;1.30;;
19111;SDS011;9688;51.906;8.376;2023-04-03T08:25:05;2.27;;;1.20;;
19111;SDS011;9688;51.906;8.376;2023-04-03T08:27:53;3.93;;;1.30;;
19111;SDS011;9688;51.906;8.376;2023-04-03T08:30:40;2.00;;;1.17;;
19111;SDS011;9688;51.906;8.376;2023-04-03T08:33:27;1.50;;;1.13;;
19111;SDS011;9688;51.906;8.376;2023-04-03T08:36:16;2.60;;;1.30;;
19111;SDS011;9688;51.906;8.376;2023-04-03T08:39:04;1.87;;;1.23;;
19111;SDS011;9688;51.906;8.376;2023-04-03T08:41:50;1.10;;;1.10;;
19111;SDS011;9688;51.906;8.376;2023-04-03T08:44:38;1.80;;;1.37;;
19111;SDS011;9688;51.906;8.376;2023-04-03T08:47:37;1.97;;;1.10;;
19111;SDS011;9688;51.906;8.376;2023-04-03T08:50:24;5.17;;;1.20;;
19111;SDS011;9688;51.906;8.376;2023-04-03T08:53:16;4.77;;;1.83;;
19111;SDS011;9688;51.906;8.376;2023-04-03T08:56:07;2.53;;;1.53;;
19111;SDS011;9688;51.906;8.376;2023-04-03T08:58:56;2.47;;;1.23;;
19111;SDS011;9688;51.906;8.376;2023-04-03T09:01:44;2.50;;;1.60;;
19111;SDS011;9688;51.906;8.376;2023-04-03T09:04:32;3.07;;;1.00;;
19111;SDS011;9688;51.906;8.376;2023-04-03T09:07:20;2.37;;;1.70;;
19111;SDS011;9688;51.906;8.376;2023-04-03T09:10:13;3.87;;;1.60;;
19111;SDS011;9688;51.906;8.376;2023-04-03T09:13:06;1.57;;;1.30;;
19111;SDS011;9688;51.906;8.376;2023-04-03T09:16:00;5.00;;;1.53;;
19111;SDS011;9688;51.906;8.376;2023-04-03T09:18:51;2.63;;;1.33;;
19111;SDS011;9688;51.906;8.376;2023-04-03T09:21:45;3.13;;;1.43;;
19111;SDS011;9688;51.906;8.376;2023-04-03T09:24:32;3.57;;;1.47;;
19111;SDS011;9688;51.906;8.376;2023-04-03T09:27:18;4.27;;;1.50;;
19111;SDS011;9688;51.906;8.376;2023-04-03T09:30:11;1.70;;;1.20;;
19111;SDS011;9688;51.906;8.376;2023-04-03T09:33:01;1.87;;;1.20;;
19111;SDS011;9688;51.906;8.376;2023-04-03T09:35:51;1.20;;;1.10;;
19111;SDS011;9688;51.906;8.376;2023-04-03T09:38:41;1.50;;;1.13;;
19111;SDS011;9688;51.906;8.376;2023-04-03T09:41:28;2.67;;;1.20;;
19111;SDS011;9688;51.906;8.376;2023-04-03T09:44:21;1.27;;;1.07;;
19111;SDS011;9688;51.906;8.376;2023-04-03T09:47:17;3.03;;;1.10;;
19111;SDS011;9688;51.906;8.376;2023-04-03T09:50:20;1.27;;;1.10;;
19111;SDS011;9688;51.906;8.376;2023-04-03T09:53:23;6.67;;;1.40;;
19111;SDS011;9688;51.906;8.376;2023-04-03T09:56:20;4.30;;;1.53;;
19111;SDS011;9688;51.906;8.376;2023-04-03T09:59:13;1.57;;;1.10;;
19111;SDS011;9688;51.906;8.376;2023-04-03T10:02:04;3.10;;;1.20;;
19111;SDS011;9688;51.906;8.376;2023-04-03T10:08:19;4.13;;;1.40;;
19111;SDS011;9688;51.906;8.376;2023-04-03T10:11:12;1.70;;;1.20;;
19111;SDS011;9688;51.906;8.376;2023-04-03T10:14:02;1.27;;;1.17;;
19111;SDS011;9688;51.906;8.376;2023-04-03T10:16:52;1.97;;;1.37;;
19111;SDS011;9688;51.906;8.376;2023-04-03T10:19:45;3.47;;;1.40;;
19111;SDS011;9688;51.906;8.376;2023-04-03T10:22:45;1.50;;;1.20;;
19111;SDS011;9688;51.906;8.376;2023-04-03T10:25:42;3.03;;;1.30;;
19111;SDS011;9688;51.906;8.376;2023-04-03T10:28:36;2.87;;;1.50;;
19111;SDS011;9688;51.906;8.376;2023-04-03T10:31:32;1.10;;;1.10;;
19111;SDS011;9688;51.906;8.376;2023-04-03T10:34:29;3.60;;;1.60;;
19111;SDS011;9688;51.906;8.376;2023-04-03T10:37:23;1.60;;;1.50;;
19111;SDS011;9688;51.906;8.376;2023-04-03T10:40:19;2.00;;;1.30;;
19111;SDS011;9688;51.906;8.376;2023-04-03T10:43:17;4.67;;;1.70;;
19111;SDS011;9688;51.906;8.376;2023-04-03T10:46:13;4.90;;;1.67;;
19111;SDS011;9688;51.906;8.376;2023-04-03T10:49:13;4.00;;;1.37;;
19111;SDS011;9688;51.906;8.376;2023-04-03T10:52:16;2.63;;;1.20;;
19111;SDS011;9688;51.906;8.376;2023-04-03T10:55:14;3.33;;;1.30;;
19111;SDS011;9688;51.906;8.376;2023-04-03T10:58:12;3.87;;;1.47;;
19111;SDS011;9688;51.906;8.376;2023-04-03T11:01:11;2.87;;;1.40;;
19111;SDS011;9688;51.906;8.376;2023-04-03T11:04:04;3.07;;;1.20;;
19111;SDS011;9688;51.906;8.376;2023-04-03T11:06:57;3.90;;;1.70;;
19111;SDS011;9688;51.906;8.376;2023-04-03T11:09:48;2.83;;;1.13;;
19111;SDS011;9688;51.906;8.376;2023-04-03T11:12:41;4.57;;;2.10;;
19111;SDS011;9688;51.906;8.376;2023-04-03T11:15:30;8.10;;;2.13;;
19111;SDS011;9688;51.906;8.376;2023-04-03T11:18:19;1.73;;;1.30;;
19111;SDS011;9688;51.906;8.376;2023-04-03T11:21:12;4.60;;;1.60;;
19111;SDS011;9688;51.906;8.376;2023-04-03T11:24:11;3.33;;;1.77;;
19111;SDS011;9688;51.906;8.376;2023-04-03T11:27:02;2.80;;;1.70;;
19111;SDS011;9688;51.906;8.376;2023-04-03T11:29:50;3.07;;;1.20;;
19111;SDS011;9688;51.906;8.376;2023-04-03T11:32:45;2.60;;;1.47;;
19111;SDS011;9688;51.906;8.376;2023-04-03T11:35:42;3.77;;;1.10;;
19111;SDS011;9688;51.906;8.376;2023-04-03T11:38:33;1.80;;;1.00;;
19111;SDS011;9688;51.906;8.376;2023-04-03T11:41:27;3.70;;;1.30;;
19111;SDS011;9688;51.906;8.376;2023-04-03T11:44:27;2.13;;;1.40;;
19111;SDS011;9688;51.906;8.376;2023-04-03T11:50:32;3.00;;;1.37;;
19111;SDS011;9688;51.906;8.376;2023-04-03T11:53:33;5.13;;;2.27;;
19111;SDS011;9688;51.906;8.376;2023-04-03T11:56:30;3.03;;;2.37;;
19111;SDS011;9688;51.906;8.376;2023-04-03T11:59:23;2.30;;;1.30;;
19111;SDS011;9688;51.906;8.376;2023-04-03T12:05:25;3.00;;;1.93;;
19111;SDS011;9688;51.906;8.376;2023-04-03T12:08:23;3.53;;;2.20;;
19111;SDS011;9688;51.906;8.376;2023-04-03T12:11:19;3.07;;;1.50;;
19111;SDS011;9688;51.906;8.376;2023-04-03T12:14:14;5.57;;;1.50;;
19111;SDS011;9688;51.906;8.376;2023-04-03T12:17:01;2.77;;;1.70;;
19111;SDS011;9688;51.906;8.376;2023-04-03T12:19:47;5.23;;;2.73;;
19111;SDS011;9688;51.906;8.376;2023-04-03T12:22:34;6.03;;;3.20;;
19111;SDS011;9688;51.906;8.376;2023-04-03T12:28:35;2.80;;;1.60;;
19111;SDS011;9688;51.906;8.376;2023-04-03T12:31:36;3.43;;;1.40;;
19111;SDS011;9688;51.906;8.376;2023-04-03T12:34:44;2.00;;;1.70;;
19111;SDS011;9688;51.906;8.376;2023-04-03T12:37:52;4.80;;;1.40;;
19111;SDS011;9688;51.906;8.376;2023-04-03T12:41:00;1.70;;;1.40;;
19111;SDS011;9688;51.906;8.376;2023-04-03T12:44:19;5.47;;;3.30;;
19111;SDS011;9688;51.906;8.376;2023-04-03T12:47:29;8.87;;;5.33;;
19111;SDS011;9688;51.906;8.376;2023-04-03T12:50:28;11.00;;;5.13;;
19111;SDS011;9688;51.906;8.376;2023-04-03T12:53:18;17.13;;;8.50;;
19111;SDS011;9688;51.906;8.376;2023-04-03T12:56:24;2.97;;;1.67;;
19111;SDS011;9688;51.906;8.376;2023-04-03T12:59:16;1.50;;;1.40;;
19111;SDS011;9688;51.906;8.376;2023-04-03T13:02:10;3.87;;;1.70;;
19111;SDS011;9688;51.906;8.376;2023-04-03T13:05:07;2.43;;;1.70;;
19111;SDS011;9688;51.906;8.376;2023-04-03T13:07:57;1.47;;;1.20;;
19111;SDS011;9688;51.906;8.376;2023-04-03T13:10:50;3.27;;;1.40;;
19111;SDS011;9688;51.906;8.376;2023-04-03T13:13:39;1.40;;;1.30;;
19111;SDS011;9688;51.906;8.376;2023-04-03T13:16:25;3.57;;;1.63;;
19111;SDS011;9688;51.906;8.376;2023-04-03T13:19:15;2.50;;;1.33;;
19111;SDS011;9688;51.906;8.376;2023-04-03T13:22:04;2.33;;;1.20;;
19111;SDS011;9688;51.906;8.376;2023-04-03T13:24:54;2.03;;;1.23;;
19111;SDS011;9688;51.906;8.376;2023-04-03T13:27:43;1.70;;;1.37;;
19111;SDS011;9688;51.906;8.376;2023-04-03T13:30:30;2.57;;;1.20;;
19111;SDS011;9688;51.906;8.376;2023-04-03T13:33:19;5.13;;;1.63;;
19111;SDS011;9688;51.906;8.376;2023-04-03T13:36:07;2.97;;;1.60;;
19111;SDS011;9688;51.906;8.376;2023-04-03T13:39:04;2.70;;;1.50;;
19111;SDS011;9688;51.906;8.376;2023-04-03T13:41:52;1.43;;;1.33;;
19111;SDS011;9688;51.906;8.376;2023-04-03T13:44:38;2.77;;;1.40;;
19111;SDS011;9688;51.906;8.376;2023-04-03T13:47:24;4.43;;;1.50;;
19111;SDS011;9688;51.906;8.376;2023-04-03T13:50:16;2.13;;;1.33;;
19111;SDS011;9688;51.906;8.376;2023-04-03T13:53:09;4.17;;;1.50;;
19111;SDS011;9688;51.906;8.376;2023-04-03T13:56:06;1.30;;;1.20;;
19111;SDS011;9688;51.906;8.376;2023-04-03T13:58:58;3.93;;;1.30;;
19111;SDS011;9688;51.906;8.376;2023-04-03T14:01:51;3.50;;;1.30;;
19111;SDS011;9688;51.906;8.376;2023-04-03T14:04:45;1.63;;;1.20;;
19111;SDS011;9688;51.906;8.376;2023-04-03T14:07:35;2.27;;;1.40;;
19111;SDS011;9688;51.906;8.376;2023-04-03T14:10:23;1.27;;;1.17;;
19111;SDS011;9688;51.906;8.376;2023-04-03T14:13:12;2.30;;;1.30;;
19111;SDS011;9688;51.906;8.376;2023-04-03T14:16:02;5.50;;;1.60;;
19111;SDS011;9688;51.906;8.376;2023-04-03T14:18:49;2.00;;;1.53;;
19111;SDS011;9688;51.906;8.376;2023-04-03T14:21:37;2.57;;;1.70;;
19111;SDS011;9688;51.906;8.376;2023-04-03T14:24:22;2.03;;;1.27;;
19111;SDS011;9688;51.906;8.376;2023-04-03T14:27:11;4.23;;;1.60;;
19111;SDS011;9688;51.906;8.376;2023-04-03T14:30:21;2.77;;;1.63;;
19111;SDS011;9688;51.906;8.376;2023-04-03T14:33:09;3.13;;;1.70;;
19111;SDS011;9688;51.906;8.376;2023-04-03T14:35:57;4.27;;;1.40;;
19111;SDS011;9688;51.906;8.376;2023-04-03T14:38:43;3.83;;;1.60;;
19111;SDS011;9688;51.906;8.376;2023-04-03T14:41:30;3.97;;;2.17;;
19111;SDS011;9688;51.906;8.376;2023-04-03T14:44:15;4.17;;;2.60;;
19111;SDS011;9688;51.906;8.376;2023-04-03T14:47:02;8.40;;;2.33;;
19111;SDS011;9688;51.906;8.376;2023-04-03T14:49:49;6.07;;;3.70;;
19111;SDS011;9688;51.906;8.376;2023-04-03T14:52:35;4.47;;;2.63;;
19111;SDS011;9688;51.906;8.376;2023-04-03T14:55:22;6.47;;;3.33;;
19111;SDS011;9688;51.906;8.376;2023-04-03T14:58:13;8.67;;;3.00;;
19111;SDS011;9688;51.906;8.376;2023-04-03T15:01:00;3.33;;;1.63;;
19111;SDS011;9688;51.906;8.376;2023-04-03T15:03:47;4.80;;;1.43;;
19111;SDS011;9688;51.906;8.376;2023-04-03T15:06:33;1.40;;;1.30;;
19111;SDS011;9688;51.906;8.376;2023-04-03T15:09:20;2.63;;;1.33;;
19111;SDS011;9688;51.906;8.376;2023-04-03T15:12:07;2.60;;;1.40;;
19111;SDS011;9688;51.906;8.376;2023-04-03T15:14:53;1.20;;;1.10;;
19111;SDS011;9688;51.906;8.376;2023-04-03T15:17:39;3.97;;;1.50;;
19111;SDS011;9688;51.906;8.376;2023-04-03T15:20:30;2.83;;;1.57;;
19111;SDS011;9688;51.906;8.376;2023-04-03T15:23:19;2.13;;;1.93;;
19111;SDS011;9688;51.906;8.376;2023-04-03T15:26:10;5.47;;;1.60;;
19111;SDS011;9688;51.906;8.376;2023-04-03T15:28:55;5.03;;;1.73;;
19111;SDS011;9688;51.906;8.376;2023-04-03T15:31:41;3.67;;;1.73;;
19111;SDS011;9688;51.906;8.376;2023-04-03T15:34:27;1.93;;;1.73;;
19111;SDS011;9688;51.906;8.376;2023-04-03T15:37:16;3.00;;;1.30;;
19111;SDS011;9688;51.906;8.376;2023-04-03T15:40:04;1.20;;;1.10;;
19111;SDS011;9688;51.906;8.376;2023-04-03T15:42:51;3.87;;;1.50;;
19111;SDS011;9688;51.906;8.376;2023-04-03T15:45:37;1.63;;;1.40;;
19111;SDS011;9688;51.906;8.376;2023-04-03T15:48:23;2.60;;;1.07;;
19111;SDS011;9688;51.906;8.376;2023-04-03T15:51:09;1.63;;;1.40;;
19111;SDS011;9688;51.906;8.376;2023-04-03T15:53:57;3.30;;;1.50;;
19111;SDS011;9688;51.906;8.376;2023-04-03T15:56:43;1.47;;;1.23;;
19111;SDS011;9688;51.906;8.376;2023-04-03T15:59:28;1.30;;;1.20;;
19111;SDS011;9688;51.906;8.376;2023-04-03T16:02:16;4.63;;;2.27;;
19111;SDS011;9688;51.906;8.376;2023-04-03T16:05:06;3.90;;;1.70;;
19111;SDS011;9688;51.906;8.376;2023-04-03T16:07:57;3.03;;;1.80;;
19111;SDS011;9688;51.906;8.376;2023-04-03T16:10:51;2.77;;;2.13;;
19111;SDS011;9688;51.906;8.376;2023-04-03T16:13:38;3.90;;;1.90;;
19111;SDS011;9688;51.906;8.376;2023-04-03T16:16:24;3.93;;;2.17;;
19111;SDS011;9688;51.906;8.376;2023-04-03T16:19:11;4.83;;;2.20;;
19111;SDS011;9688;51.906;8.376;2023-04-03T16:21:57;4.13;;;2.00;;
19111;SDS011;9688;51.906;8.376;2023-04-03T16:24:42;1.83;;;1.70;;
19111;SDS011;9688;51.906;8.376;2023-04-03T16:27:30;1.40;;;1.30;;
19111;SDS011;9688;51.906;8.376;2023-04-03T16:30:16;3.20;;;1.73;;
19111;SDS011;9688;51.906;8.376;2023-04-03T16:33:02;3.53;;;2.47;;
19111;SDS011;9688;51.906;8.376;2023-04-03T16:35:48;3.23;;;1.83;;
19111;SDS011;9688;51.906;8.376;2023-04-03T16:38:34;1.53;;;1.30;;
19111;SDS011;9688;51.906;8.376;2023-04-03T16:41:20;3.53;;;1.50;;
19111;SDS011;9688;51.906;8.376;2023-04-03T16:44:08;4.20;;;2.00;;
19111;SDS011;9688;51.906;8.376;2023-04-03T16:46:54;3.33;;;2.20;;
19111;SDS011;9688;51.906;8.376;2023-04-03T16:49:40;2.60;;;2.00;;
19111;SDS011;9688;51.906;8.376;2023-04-03T16:52:30;5.40;;;2.30;;
19111;SDS011;9688;51.906;8.376;2023-04-03T16:55:17;3.60;;;2.20;;
19111;SDS011;9688;51.906;8.376;2023-04-03T16:58:03;3.93;;;2.00;;
19111;SDS011;9688;51.906;8.376;2023-04-03T17:00:51;3.37;;;2.43;;
19111;SDS011;9688;51.906;8.376;2023-04-03T17:03:38;2.03;;;1.40;;
19111;SDS011;9688;51.906;8.376;2023-04-03T17:06:26;5.03;;;1.67;;
19111;SDS011;9688;51.906;8.376;2023-04-03T17:09:13;3.30;;;1.60;;
19111;SDS011;9688;51.906;8.376;2023-04-03T17:11:59;3.03;;;1.43;;
19111;SDS011;9688;51.906;8.376;2023-04-03T17:14:46;2.60;;;1.30;;
19111;SDS011;9688;51.906;8.376;2023-04-03T17:17:34;1.57;;;1.43;;
19111;SDS011;9688;51.906;8.376;2023-04-03T17:20:20;2.50;;;1.60;;
19111;SDS011;9688;51.906;8.376;2023-04-03T17:23:06;1.93;;;1.40;;
19111;SDS011;9688;51.906;8.376;2023-04-03T17:25:53;3.23;;;1.40;;